K.pluto — 3EYQ3 — position and weather

sailwx.info

Track history (hours):
 
Tides and Currents Weather Stations Pressure Air Temp Water Temp Dewpoint Dewpoint Depression Visibility Wind Speed Wind Dir Waves Ship Positions

K.pluto

Last reported at 2016-May-10 05:25 UTC. Time now 2016-Jun-01 01:41 UTC.
Position N 02°04' E 102°08'.
Warning: this ship's position is 21 days out of date.

Length 170 m; draft 7.5 m.

Type: Cargo ship. MMSI: 373504000.

Date/timePositionNaut miles runAvg speedWind from/ knotsBaromVisibWave heightAir tempDewpointWater temp
2016-May-10 05:25N 02°04' E 102°08'1111.9
2016-May-10 04:30N 01°56' E 102°17'1111.3
2016-May-10 03:33N 01°52' E 102°26'1411.0
2016-May-10 02:20N 01°46' E 102°38'6212.7
2016-May-09 21:28N 01°13' E 103°31'1011.1
2016-May-09 20:33N 01°10' E 103°41'8 7.9
2016-May-09 19:33N 01°11' E 103°49'7 6.6
2016-May-09 18:33N 01°14' E 103°54'2 2.0
2016-May-09 17:33N 01°16' E 103°54'0 0.1
2016-May-09 16:33N 01°16' E 103°54'0 0.1
2016-May-09 14:33N 01°16' E 103°54'0 0.0
2016-May-09 12:27N 01°16' E 103°54'0 0.0
2016-May-09 09:27N 01°16' E 103°54'0 0.0
2016-May-09 08:27N 01°16' E 103°54'0 0.0
2016-May-09 07:18N 01°16' E 103°54'0 0.0
2016-May-09 06:33N 01°16' E 103°54'3 3.0
2016-May-09 05:33N 01°14' E 103°56'  
Track history (hours):
 
Tides and Currents Weather Stations Pressure Air Temp Water Temp Dewpoint Dewpoint Depression Visibility Wind Speed Wind Dir Waves Ship Positions

K.pluto

Last reported at 2016-May-10 05:25 UTC. Time now 2016-Jun-01 01:41 UTC.
Position N 02°04' E 102°08'.
Warning: this ship's position is 21 days out of date.

Length 170 m; draft 7.5 m.

Type: Cargo ship. MMSI: 373504000.

Date/timePositionNaut miles runAvg speedWind from/ knotsBaromVisibWave heightAir tempDewpointWater temp
2016-May-10 05:25N 02°04' E 102°08'1111.9
2016-May-10 04:30N 01°56' E 102°17'1111.3
2016-May-10 03:33N 01°52' E 102°26'1411.0
2016-May-10 02:20N 01°46' E 102°38'6212.7
2016-May-09 21:28N 01°13' E 103°31'1011.1
2016-May-09 20:33N 01°10' E 103°41'8 7.9
2016-May-09 19:33N 01°11' E 103°49'7 6.6
2016-May-09 18:33N 01°14' E 103°54'2 2.0
2016-May-09 17:33N 01°16' E 103°54'0 0.1
2016-May-09 16:33N 01°16' E 103°54'0 0.1
2016-May-09 14:33N 01°16' E 103°54'0 0.0
2016-May-09 12:27N 01°16' E 103°54'0 0.0
2016-May-09 09:27N 01°16' E 103°54'0 0.0
2016-May-09 08:27N 01°16' E 103°54'0 0.0
2016-May-09 07:18N 01°16' E 103°54'0 0.0
2016-May-09 06:33N 01°16' E 103°54'3 3.0
2016-May-09 05:33N 01°14' E 103°56'  

Dump ship's entire track history